Time;durP1;ratioP1;P1;durP2;ratioP2;P2;SDS_P1;SDS_P2;PMS_P1;PMS_P2;Temp;Humidity;BMP_temperature;BMP_pressure;BME280_temperature;BME280_humidity;BME280_pressure;Samples;Min_cycle;Max_cycle;Signal;HPM_P1;HPM_P2
2022/07/17 00:01:51;;;;;;;6.07;2.88;;;;;;;;;;5079294;28;20465;-77
2022/07/17 00:04:18;;;;;;;9.50;3.33;;;;;;;;;;5079124;28;20490;-76
2022/07/17 00:06:44;;;;;;;4.30;2.60;;;;;;;;;;5080079;28;20885;-76
2022/07/17 00:09:10;;;;;;;6.80;2.97;;;;;;;;;;5078687;28;20416;-77
2022/07/17 00:11:37;;;;;;;5.80;2.70;;;;;;;;;;5079816;28;20420;-76
2022/07/17 00:14:03;;;;;;;6.47;2.90;;;;;;;;;;5078795;28;20526;-77
2022/07/17 00:16:31;;;;;;;8.00;3.40;;;;;;;;;;5080679;28;20406;-76
2022/07/17 00:18:57;;;;;;;7.28;2.58;;;;;;;;;;5077892;28;20435;-77
2022/07/17 00:21:23;;;;;;;6.82;3.03;;;;;;;;;;5079691;28;20763;-76
2022/07/17 00:23:50;;;;;;;6.70;3.20;;;;;;;;;;5079209;28;20416;-76
2022/07/17 00:26:16;;;;;;;7.25;2.75;;;;;;;;;;5078793;28;20412;-76
2022/07/17 00:28:42;;;;;;;4.25;2.45;;;;;;;;;;5078640;28;20422;-76
2022/07/17 00:31:09;;;;;;;8.00;3.20;;;;;;;;;;5080531;28;20410;-76
2022/07/17 00:33:36;;;;;;;5.45;2.70;;;;;;;;;;5079355;28;20416;-76
2022/07/17 00:36:03;;;;;;;4.45;2.80;;;;;;;;;;5077961;28;20416;-75
2022/07/17 00:38:29;;;;;;;7.55;2.80;;;;;;;;;;5076567;22;20405;-75
2022/07/17 00:40:56;;;;;;;7.18;2.70;;;;;;;;;;5059752;28;20437;-74
2022/07/17 00:43:23;;;;;;;4.30;2.72;;;;;;;;;;5058114;28;20423;-75
2022/07/17 00:45:54;;;;;;;7.17;3.10;;;;;;;;;;5059117;28;20420;-74
2022/07/17 00:48:21;;;;;;;8.47;3.17;;;;;;;;;;5041696;28;20414;-75
2022/07/17 00:50:49;;;;;;;7.32;3.30;;;;;;;;;;5038619;28;20420;-74
2022/07/17 00:53:15;;;;;;;7.78;3.30;;;;;;;;;;5038496;28;20434;-75
2022/07/17 00:55:42;;;;;;;9.98;3.10;;;;;;;;;;5038585;28;20905;-75
2022/07/17 00:58:08;;;;;;;6.43;2.90;;;;;;;;;;5039481;28;20422;-74
2022/07/17 01:00:35;;;;;;;6.17;3.27;;;;;;;;;;5040418;28;20925;-75
2022/07/17 01:03:01;;;;;;;10.88;4.00;;;;;;;;;;5039336;28;20423;-75
2022/07/17 01:05:27;;;;;;;6.72;3.50;;;;;;;;;;5038707;28;20421;-75
2022/07/17 01:07:55;;;;;;;8.68;3.40;;;;;;;;;;5040043;28;20424;-75
2022/07/17 01:10:21;;;;;;;9.30;3.20;;;;;;;;;;5039244;28;20421;-74
2022/07/17 01:12:48;;;;;;;7.15;3.97;;;;;;;;;;5039255;28;20418;-75
2022/07/17 01:15:15;;;;;;;7.53;3.28;;;;;;;;;;5039636;28;20428;-74
2022/07/17 01:17:42;;;;;;;9.30;3.50;;;;;;;;;;5039199;28;20448;-74
2022/07/17 01:20:09;;;;;;;7.50;3.20;;;;;;;;;;5039157;28;20418;-75
2022/07/17 01:22:41;;;;;;;6.38;3.20;;;;;;;;;;5039265;28;20419;-75
2022/07/17 01:25:08;;;;;;;4.63;2.75;;;;;;;;;;5039204;28;20417;-74
2022/07/17 01:27:34;;;;;;;7.35;3.60;;;;;;;;;;5038679;28;20423;-75
2022/07/17 01:30:00;;;;;;;7.13;3.50;;;;;;;;;;5037821;28;20422;-74
2022/07/17 01:32:42;;;;;;;7.80;3.90;;;;;;;;;;5038613;28;20753;-75
2022/07/17 01:35:09;;;;;;;4.47;3.47;;;;;;;;;;5038508;28;20424;-75
2022/07/17 01:37:35;;;;;;;7.55;3.40;;;;;;;;;;5038475;28;20914;-75
2022/07/17 01:40:04;;;;;;;5.20;3.23;;;;;;;;;;5038379;28;20426;-74
2022/07/17 01:42:30;;;;;;;9.43;3.72;;;;;;;;;;5036550;28;20520;-75
2022/07/17 01:44:57;;;;;;;8.60;3.22;;;;;;;;;;5039168;28;20425;-74
2022/07/17 01:47:23;;;;;;;5.65;3.30;;;;;;;;;;5038109;28;20438;-75
2022/07/17 01:49:51;;;;;;;7.43;3.80;;;;;;;;;;5038576;28;20903;-74
2022/07/17 01:52:17;;;;;;;6.43;3.50;;;;;;;;;;5037406;28;20407;-75
2022/07/17 01:54:44;;;;;;;6.07;3.35;;;;;;;;;;5037628;28;20419;-75
2022/07/17 01:57:12;;;;;;;11.20;3.80;;;;;;;;;;5038878;28;20409;-74
2022/07/17 01:59:38;;;;;;;7.70;3.63;;;;;;;;;;5039220;28;20457;-75
2022/07/17 02:02:05;;;;;;;5.97;3.35;;;;;;;;;;5038832;28;20450;-75
2022/07/17 02:04:32;;;;;;;8.15;3.60;;;;;;;;;;5039511;28;20418;-74
2022/07/17 02:06:58;;;;;;;5.95;3.28;;;;;;;;;;5038621;28;20913;-75
2022/07/17 02:09:24;;;;;;;7.38;3.60;;;;;;;;;;5038705;28;20421;-74
2022/07/17 02:11:51;;;;;;;4.63;2.95;;;;;;;;;;5039647;28;20425;-75
2022/07/17 02:14:18;;;;;;;6.13;3.10;;;;;;;;;;5038698;28;20420;-75
2022/07/17 02:16:45;;;;;;;5.83;3.30;;;;;;;;;;5038010;28;20429;-75
2022/07/17 02:19:11;;;;;;;6.45;3.10;;;;;;;;;;5038670;28;21071;-75
2022/07/17 02:21:38;;;;;;;5.45;3.40;;;;;;;;;;5039324;28;20429;-75
2022/07/17 02:24:04;;;;;;;6.55;2.97;;;;;;;;;;5038487;28;20433;-75
2022/07/17 02:26:31;;;;;;;8.20;3.90;;;;;;;;;;5038316;28;20426;-75
2022/07/17 02:28:57;;;;;;;6.15;3.20;;;;;;;;;;5037002;28;20413;-74
2022/07/17 02:31:25;;;;;;;5.70;3.60;;;;;;;;;;5038248;28;20415;-74
2022/07/17 02:33:51;;;;;;;4.95;3.17;;;;;;;;;;5037187;28;20424;-75
2022/07/17 02:36:17;;;;;;;9.68;3.60;;;;;;;;;;5037771;28;20465;-75
2022/07/17 02:38:44;;;;;;;9.55;4.18;;;;;;;;;;5036872;28;20429;-75
2022/07/17 02:41:10;;;;;;;5.68;3.97;;;;;;;;;;5037291;28;20428;-74
2022/07/17 02:43:36;;;;;;;6.35;3.80;;;;;;;;;;5037345;28;20415;-74
2022/07/17 02:46:03;;;;;;;7.90;4.18;;;;;;;;;;5038091;28;20419;-75
2022/07/17 02:48:31;;;;;;;7.30;3.97;;;;;;;;;;5037556;28;20426;-75
2022/07/17 02:50:57;;;;;;;5.95;4.25;;;;;;;;;;5036369;28;20407;-74
2022/07/17 02:53:24;;;;;;;7.80;4.10;;;;;;;;;;5036842;28;20418;-74
2022/07/17 02:55:50;;;;;;;7.97;4.65;;;;;;;;;;5036384;28;20428;-75
2022/07/17 02:58:16;;;;;;;8.15;4.20;;;;;;;;;;5036994;28;20499;-74
2022/07/17 03:00:43;;;;;;;6.90;3.80;;;;;;;;;;5038312;28;20421;-75
2022/07/17 03:03:09;;;;;;;8.25;3.80;;;;;;;;;;5042131;28;20423;-75
2022/07/17 03:05:37;;;;;;;6.75;3.75;;;;;;;;;;5042553;28;20420;-75
2022/07/17 03:08:03;;;;;;;8.70;4.20;;;;;;;;;;5044052;28;20417;-75
2022/07/17 03:10:29;;;;;;;5.10;4.13;;;;;;;;;;5042875;28;20424;-75
2022/07/17 03:12:56;;;;;;;7.22;3.90;;;;;;;;;;5044587;28;20421;-75
2022/07/17 03:15:22;;;;;;;7.57;4.32;;;;;;;;;;5044289;28;20424;-74
2022/07/17 03:17:48;;;;;;;5.78;3.78;;;;;;;;;;5044924;28;20421;-75
2022/07/17 03:20:15;;;;;;;8.60;4.20;;;;;;;;;;5044883;28;20416;-74
2022/07/17 03:22:42;;;;;;;8.25;4.15;;;;;;;;;;5044816;28;20409;-74
2022/07/17 03:25:09;;;;;;;8.32;4.40;;;;;;;;;;5043830;28;20416;-74
2022/07/17 03:27:36;;;;;;;7.25;4.22;;;;;;;;;;5044537;28;20409;-75
2022/07/17 03:30:02;;;;;;;8.30;5.00;;;;;;;;;;5045233;28;20421;-74
2022/07/17 03:32:29;;;;;;;4.60;4.20;;;;;;;;;;5044362;28;20426;-75
2022/07/17 03:34:55;;;;;;;7.68;4.22;;;;;;;;;;5042444;28;20424;-74
2022/07/17 03:37:21;;;;;;;6.53;4.40;;;;;;;;;;5042885;28;20417;-75
2022/07/17 03:39:49;;;;;;;8.20;4.00;;;;;;;;;;5044156;28;20415;-75
2022/07/17 03:42:15;;;;;;;6.10;3.90;;;;;;;;;;5042583;28;20435;-75
2022/07/17 03:44:41;;;;;;;9.23;4.70;;;;;;;;;;5043896;28;20882;-74
2022/07/17 03:47:08;;;;;;;6.53;4.20;;;;;;;;;;5043447;28;20426;-74
2022/07/17 03:49:34;;;;;;;6.43;4.20;;;;;;;;;;5044699;28;20413;-75
2022/07/17 03:52:00;;;;;;;5.88;4.50;;;;;;;;;;5043426;28;21118;-75
2022/07/17 03:54:27;;;;;;;6.70;4.00;;;;;;;;;;5043731;28;20796;-75
2022/07/17 03:56:54;;;;;;;7.32;5.05;;;;;;;;;;5043825;28;20777;-74
2022/07/17 03:59:21;;;;;;;11.07;5.07;;;;;;;;;;5041800;28;20429;-75
2022/07/17 04:01:47;;;;;;;6.50;4.63;;;;;;;;;;5044343;28;20485;-74
2022/07/17 04:04:14;;;;;;;7.68;5.18;;;;;;;;;;5044147;28;20425;-75
2022/07/17 04:06:40;;;;;;;8.93;4.97;;;;;;;;;;5044625;28;20417;-75
2022/07/17 04:09:06;;;;;;;8.77;4.90;;;;;;;;;;5043275;28;20423;-74
2022/07/17 04:11:33;;;;;;;5.45;4.93;;;;;;;;;;5042870;28;20428;-75
2022/07/17 04:14:00;;;;;;;11.57;5.53;;;;;;;;;;5040119;28;20425;-74
2022/07/17 04:16:27;;;;;;;9.13;5.17;;;;;;;;;;5038279;28;20419;-75
2022/07/17 04:18:53;;;;;;;7.90;4.85;;;;;;;;;;5039023;28;20420;-74
2022/07/17 04:21:19;;;;;;;8.23;4.90;;;;;;;;;;5040589;28;20407;-74
2022/07/17 04:23:46;;;;;;;6.72;5.03;;;;;;;;;;5041345;28;20428;-75
2022/07/17 04:26:12;;;;;;;11.38;5.80;;;;;;;;;;5039854;28;20457;-74
2022/07/17 04:28:38;;;;;;;11.40;6.17;;;;;;;;;;5040123;28;20427;-75
2022/07/17 04:31:06;;;;;;;8.00;4.70;;;;;;;;;;5040943;28;20419;-75
2022/07/17 04:33:32;;;;;;;7.03;5.75;;;;;;;;;;5039907;28;20422;-75
2022/07/17 04:35:59;;;;;;;7.38;5.97;;;;;;;;;;5041126;28;20444;-75
2022/07/17 04:38:25;;;;;;;10.00;5.73;;;;;;;;;;5039685;28;20444;-74
2022/07/17 04:40:51;;;;;;;8.80;5.35;;;;;;;;;;5040838;28;20409;-74
2022/07/17 04:43:18;;;;;;;7.03;5.13;;;;;;;;;;5039574;28;20420;-75
2022/07/17 04:45:44;;;;;;;8.65;5.75;;;;;;;;;;5040823;28;20417;-75
2022/07/17 04:48:11;;;;;;;12.20;6.60;;;;;;;;;;5038714;28;20434;-75
2022/07/17 04:50:38;;;;;;;13.98;6.57;;;;;;;;;;5040998;28;20417;-75
2022/07/17 04:53:04;;;;;;;10.65;6.55;;;;;;;;;;5038856;28;20791;-74
2022/07/17 04:55:30;;;;;;;13.05;7.00;;;;;;;;;;5040158;28;20421;-75
2022/07/17 04:57:57;;;;;;;12.20;6.70;;;;;;;;;;5039621;28;21147;-74
2022/07/17 05:00:23;;;;;;;11.32;7.32;;;;;;;;;;5040583;28;20930;-74
2022/07/17 05:02:49;;;;;;;14.65;6.90;;;;;;;;;;5039049;28;20422;-75
2022/07/17 05:05:17;;;;;;;12.50;7.00;;;;;;;;;;5039804;28;20418;-74
2022/07/17 05:07:43;;;;;;;11.32;7.13;;;;;;;;;;5037663;28;20413;-75
2022/07/17 05:10:10;;;;;;;14.90;7.20;;;;;;;;;;5039742;28;20777;-75
2022/07/17 05:12:36;;;;;;;10.05;6.78;;;;;;;;;;5040476;28;20417;-74
2022/07/17 05:15:03;;;;;;;11.55;5.95;;;;;;;;;;5038724;28;20470;-74
2022/07/17 05:17:29;;;;;;;12.05;6.95;;;;;;;;;;5038104;28;20413;-75
2022/07/17 05:19:56;;;;;;;10.70;7.00;;;;;;;;;;5037706;28;20419;-74
2022/07/17 05:22:23;;;;;;;10.50;6.10;;;;;;;;;;5039961;28;20430;-75
2022/07/17 05:24:50;;;;;;;11.43;6.60;;;;;;;;;;5039372;28;20415;-75
2022/07/17 05:27:16;;;;;;;12.27;7.03;;;;;;;;;;5038599;28;20419;-74
2022/07/17 05:29:42;;;;;;;10.50;6.25;;;;;;;;;;5039867;28;20438;-75
2022/07/17 05:32:09;;;;;;;12.90;6.65;;;;;;;;;;5038152;28;20824;-75
2022/07/17 05:34:35;;;;;;;11.52;6.20;;;;;;;;;;5039445;28;20900;-75
2022/07/17 05:37:01;;;;;;;13.90;6.55;;;;;;;;;;5039213;28;20417;-74
2022/07/17 05:39:29;;;;;;;11.38;7.07;;;;;;;;;;5037674;28;20432;-75
2022/07/17 05:41:55;;;;;;;12.85;6.03;;;;;;;;;;5038121;28;20433;-75
2022/07/17 05:44:21;;;;;;;8.05;6.22;;;;;;;;;;5036958;28;20417;-74
2022/07/17 05:46:48;;;;;;;11.95;6.78;;;;;;;;;;5038774;28;20417;-75
2022/07/17 05:49:14;;;;;;;11.75;6.57;;;;;;;;;;5037982;28;20426;-74
2022/07/17 05:51:40;;;;;;;12.13;5.85;;;;;;;;;;5037634;28;20422;-74
2022/07/17 05:54:07;;;;;;;10.37;6.50;;;;;;;;;;5037470;28;20957;-75
2022/07/17 05:56:34;;;;;;;10.50;6.43;;;;;;;;;;5039740;28;20416;-75
2022/07/17 05:59:01;;;;;;;8.27;6.07;;;;;;;;;;5036599;28;20427;-74
2022/07/17 06:01:27;;;;;;;10.75;5.95;;;;;;;;;;5039442;28;20410;-75
2022/07/17 06:03:53;;;;;;;9.48;5.70;;;;;;;;;;5038421;28;20426;-75
2022/07/17 06:06:20;;;;;;;12.93;6.95;;;;;;;;;;5038332;28;20417;-74
2022/07/17 06:08:47;;;;;;;9.75;5.72;;;;;;;;;;5038996;28;20420;-74
2022/07/17 06:11:13;;;;;;;15.68;6.70;;;;;;;;;;5038939;28;20435;-74
2022/07/17 06:13:41;;;;;;;11.68;5.70;;;;;;;;;;5038920;28;20905;-74
2022/07/17 06:16:08;;;;;;;9.45;5.50;;;;;;;;;;5037804;28;20417;-75
2022/07/17 06:18:34;;;;;;;8.65;5.45;;;;;;;;;;5038195;28;20797;-74
2022/07/17 06:21:01;;;;;;;11.85;5.50;;;;;;;;;;5038086;28;20441;-75
2022/07/17 06:23:27;;;;;;;12.15;5.57;;;;;;;;;;5038305;28;20422;-75
2022/07/17 06:25:53;;;;;;;8.63;5.70;;;;;;;;;;5037812;28;20792;-75
2022/07/17 06:28:20;;;;;;;13.10;5.25;;;;;;;;;;5037405;28;20426;-75
2022/07/17 06:30:47;;;;;;;8.48;5.30;;;;;;;;;;5039001;28;20413;-75
2022/07/17 06:33:13;;;;;;;8.68;5.03;;;;;;;;;;5037659;28;20436;-75
2022/07/17 06:35:40;;;;;;;9.25;5.40;;;;;;;;;;5038406;28;20785;-74
2022/07/17 06:38:06;;;;;;;12.20;5.90;;;;;;;;;;5072714;22;20433;-77
2022/07/17 06:40:32;;;;;;;11.48;5.43;;;;;;;;;;5078623;28;20420;-76
2022/07/17 06:42:59;;;;;;;8.65;4.90;;;;;;;;;;5077064;28;20414;-77
2022/07/17 06:45:25;;;;;;;9.67;4.80;;;;;;;;;;5078291;28;20911;-77
2022/07/17 06:47:53;;;;;;;9.32;5.00;;;;;;;;;;5075494;28;20406;-77
2022/07/17 06:50:19;;;;;;;9.65;4.85;;;;;;;;;;5074954;28;20421;-77
2022/07/17 06:52:45;;;;;;;6.60;3.80;;;;;;;;;;5077151;28;20397;-77
2022/07/17 06:55:12;;;;;;;7.75;4.40;;;;;;;;;;5076901;28;20419;-77
2022/07/17 06:57:38;;;;;;;8.45;4.00;;;;;;;;;;5076980;28;20410;-76
2022/07/17 07:00:05;;;;;;;7.63;4.00;;;;;;;;;;5077228;28;20460;-77
2022/07/17 07:02:31;;;;;;;9.55;3.80;;;;;;;;;;5074711;28;20409;-77
2022/07/17 07:04:59;;;;;;;6.43;4.22;;;;;;;;;;5076587;28;20467;-76
2022/07/17 07:07:25;;;;;;;9.30;4.17;;;;;;;;;;5075035;28;20405;-77
2022/07/17 07:09:51;;;;;;;7.45;4.25;;;;;;;;;;5076915;28;20891;-77
2022/07/17 07:12:18;;;;;;;9.70;3.90;;;;;;;;;;5076367;28;20423;-77
2022/07/17 07:14:44;;;;;;;8.00;4.07;;;;;;;;;;5076804;28;20416;-77
2022/07/17 07:17:10;;;;;;;7.47;3.87;;;;;;;;;;5075239;28;20411;-76
2022/07/17 07:19:37;;;;;;;7.35;3.60;;;;;;;;;;5077045;28;20415;-77
2022/07/17 07:22:04;;;;;;;9.40;3.35;;;;;;;;;;5076177;28;20414;-77
2022/07/17 07:24:31;;;;;;;8.55;4.00;;;;;;;;;;5074415;28;20407;-77
2022/07/17 07:26:57;;;;;;;7.97;3.92;;;;;;;;;;5076380;28;20411;-76
2022/07/17 07:29:23;;;;;;;7.18;3.47;;;;;;;;;;5074751;28;20425;-76
2022/07/17 07:31:50;;;;;;;8.60;3.10;;;;;;;;;;5075064;28;20409;-76
2022/07/17 07:34:16;;;;;;;7.90;3.30;;;;;;;;;;5076715;28;20473;-77
2022/07/17 07:36:42;;;;;;;8.80;3.40;;;;;;;;;;5076649;28;20419;-76
2022/07/17 07:39:10;;;;;;;7.10;2.92;;;;;;;;;;5074858;28;20421;-76
2022/07/17 07:41:36;;;;;;;5.60;3.00;;;;;;;;;;5073924;28;20422;-76
2022/07/17 07:44:02;;;;;;;5.90;2.90;;;;;;;;;;5074809;28;20416;-76
2022/07/17 07:46:29;;;;;;;7.20;3.00;;;;;;;;;;5076248;28;20813;-77
2022/07/17 07:48:55;;;;;;;9.00;3.00;;;;;;;;;;5075956;28;20410;-76
2022/07/17 07:51:21;;;;;;;12.65;3.00;;;;;;;;;;5077290;28;20418;-76
2022/07/17 07:53:48;;;;;;;5.50;2.67;;;;;;;;;;5078607;28;20433;-77
2022/07/17 07:56:15;;;;;;;6.25;2.20;;;;;;;;;;5079856;28;20427;-76
2022/07/17 07:58:42;;;;;;;4.57;2.20;;;;;;;;;;5078343;28;20420;-77
2022/07/17 08:01:08;;;;;;;6.77;1.70;;;;;;;;;;5080367;28;20797;-76
2022/07/17 08:03:34;;;;;;;6.50;2.00;;;;;;;;;;5080985;28;20421;-76
2022/07/17 08:06:00;;;;;;;4.60;2.00;;;;;;;;;;5079246;28;20412;-76
2022/07/17 08:08:27;;;;;;;6.78;1.80;;;;;;;;;;5080022;28;20416;-77
2022/07/17 08:10:53;;;;;;;5.30;2.00;;;;;;;;;;5080361;28;20485;-77
2022/07/17 08:13:21;;;;;;;8.02;2.08;;;;;;;;;;5080042;28;20803;-77
2022/07/17 08:15:47;;;;;;;5.05;1.70;;;;;;;;;;5078591;28;20419;-77
2022/07/17 08:18:14;;;;;;;4.63;1.45;;;;;;;;;;5078125;28;20764;-77
2022/07/17 08:20:40;;;;;;;4.65;1.80;;;;;;;;;;5079636;28;20409;-76
2022/07/17 08:23:07;;;;;;;8.18;2.17;;;;;;;;;;5078883;28;20949;-76
2022/07/17 08:25:34;;;;;;;8.00;1.83;;;;;;;;;;5079567;28;20425;-77
2022/07/17 08:28:00;;;;;;;5.20;2.00;;;;;;;;;;5079479;28;20411;-77
2022/07/17 08:30:29;;;;;;;6.82;2.00;;;;;;;;;;5079263;28;20774;-76
2022/07/17 08:32:55;;;;;;;5.32;1.63;;;;;;;;;;5079960;28;20459;-76
2022/07/17 08:35:22;;;;;;;5.03;1.73;;;;;;;;;;5080123;28;20413;-76
2022/07/17 08:37:49;;;;;;;5.00;1.90;;;;;;;;;;5078761;28;20415;-77
2022/07/17 08:40:16;;;;;;;4.25;1.80;;;;;;;;;;5080278;28;20419;-77
2022/07/17 08:42:43;;;;;;;5.45;1.98;;;;;;;;;;5077995;28;20935;-77
2022/07/17 08:45:10;;;;;;;4.20;1.60;;;;;;;;;;5078371;28;20457;-77
2022/07/17 08:47:37;;;;;;;3.83;1.80;;;;;;;;;;5078860;28;20415;-76
2022/07/17 08:50:04;;;;;;;5.47;2.13;;;;;;;;;;5078293;28;20413;-76
2022/07/17 08:52:31;;;;;;;6.45;2.00;;;;;;;;;;5076512;28;20753;-77
2022/07/17 08:54:58;;;;;;;5.30;2.10;;;;;;;;;;5078128;28;20910;-77
2022/07/17 08:57:24;;;;;;;7.78;2.10;;;;;;;;;;5077231;28;20782;-77
2022/07/17 08:59:50;;;;;;;4.70;1.80;;;;;;;;;;5079157;28;20406;-76
2022/07/17 09:02:17;;;;;;;4.85;1.63;;;;;;;;;;5077772;28;20412;-76
2022/07/17 09:04:52;;;;;;;6.77;1.93;;;;;;;;;;5078860;28;20455;-77
2022/07/17 09:07:19;;;;;;;5.50;1.70;;;;;;;;;;5079076;28;20420;-76
2022/07/17 09:09:50;;;;;;;4.57;1.60;;;;;;;;;;5080237;28;20412;-76
2022/07/17 09:12:16;;;;;;;4.00;1.85;;;;;;;;;;5077411;28;21294;-77
2022/07/17 09:14:43;;;;;;;4.57;1.50;;;;;;;;;;5077679;28;20406;-77
2022/07/17 09:17:10;;;;;;;7.35;2.00;;;;;;;;;;5078353;28;20902;-77
2022/07/17 09:19:37;;;;;;;6.40;1.50;;;;;;;;;;5079066;28;20502;-77
2022/07/17 09:22:06;;;;;;;4.03;1.63;;;;;;;;;;5078646;28;20765;-77
2022/07/17 09:24:39;;;;;;;3.03;1.58;;;;;;;;;;5077508;28;20470;-77
2022/07/17 09:27:06;;;;;;;2.90;1.30;;;;;;;;;;5076513;28;20489;-76
2022/07/17 09:29:32;;;;;;;2.75;1.40;;;;;;;;;;5079022;28;20413;-76
2022/07/17 09:31:58;;;;;;;2.78;1.40;;;;;;;;;;5075663;28;20455;-77
2022/07/17 09:34:25;;;;;;;4.40;1.50;;;;;;;;;;5077933;28;20412;-77
2022/07/17 09:36:58;;;;;;;6.70;1.67;;;;;;;;;;5077124;28;20419;-77
2022/07/17 09:39:35;;;;;;;2.47;1.35;;;;;;;;;;5078949;28;20409;-77
2022/07/17 09:42:02;;;;;;;3.80;1.60;;;;;;;;;;5076654;28;20425;-77
2022/07/17 09:44:28;;;;;;;4.50;1.60;;;;;;;;;;5078250;28;20418;-77
2022/07/17 09:46:55;;;;;;;5.18;1.40;;;;;;;;;;5077817;28;20426;-76
2022/07/17 09:49:24;;;;;;;5.05;1.40;;;;;;;;;;5075992;28;20415;-76
2022/07/17 09:51:51;;;;;;;4.60;1.40;;;;;;;;;;5076086;28;20876;-76
2022/07/17 09:54:21;;;;;;;2.78;1.50;;;;;;;;;;5075836;28;20418;-75
2022/07/17 09:56:50;;;;;;;5.90;1.58;;;;;;;;;;5076947;28;20436;-75
2022/07/17 09:59:17;;;;;;;3.58;1.67;;;;;;;;;;5077810;28;20428;-75
2022/07/17 10:01:44;;;;;;;2.92;1.38;;;;;;;;;;5077770;28;20419;-75
2022/07/17 10:04:11;;;;;;;2.15;1.20;;;;;;;;;;5077202;28;20424;-75
2022/07/17 10:06:38;;;;;;;2.97;1.50;;;;;;;;;;5077260;28;20432;-75
2022/07/17 10:09:05;;;;;;;4.00;1.50;;;;;;;;;;5075585;28;20424;-74
2022/07/17 10:11:32;;;;;;;3.58;1.35;;;;;;;;;;5075527;28;20474;-74
2022/07/17 10:14:03;;;;;;;3.00;1.60;;;;;;;;;;5077518;28;20901;-75
2022/07/17 10:16:30;;;;;;;2.75;1.30;;;;;;;;;;5076609;28;20414;-75
2022/07/17 10:18:57;;;;;;;6.95;1.88;;;;;;;;;;5076806;28;20491;-75
2022/07/17 10:21:24;;;;;;;3.72;1.60;;;;;;;;;;5077858;28;20481;-75
2022/07/17 10:24:07;;;;;;;4.95;1.60;;;;;;;;;;5076455;28;20765;-75
2022/07/17 10:26:33;;;;;;;5.13;1.60;;;;;;;;;;5076564;28;20412;-75
2022/07/17 10:29:00;;;;;;;6.90;1.80;;;;;;;;;;5076085;28;20420;-75
2022/07/17 10:31:29;;;;;;;3.97;1.60;;;;;;;;;;5076734;28;20895;-75
2022/07/17 10:33:57;;;;;;;3.97;1.50;;;;;;;;;;5076878;28;20406;-75
2022/07/17 10:36:32;;;;;;;5.40;1.40;;;;;;;;;;5075562;28;20923;-75
2022/07/17 10:38:59;;;;;;;3.33;1.40;;;;;;;;;;5075995;28;20423;-75
2022/07/17 10:41:26;;;;;;;4.88;1.70;;;;;;;;;;5075590;28;20494;-74
2022/07/17 10:43:52;;;;;;;2.80;1.30;;;;;;;;;;5077565;28;20905;-74
2022/07/17 10:46:18;;;;;;;3.65;1.40;;;;;;;;;;5078220;28;20410;-75
2022/07/17 10:48:49;;;;;;;3.30;1.70;;;;;;;;;;5075324;28;20876;-74
2022/07/17 10:51:16;;;;;;;5.60;1.60;;;;;;;;;;5077584;28;20445;-75
2022/07/17 10:53:42;;;;;;;6.07;1.63;;;;;;;;;;5077301;28;20936;-75
2022/07/17 10:56:10;;;;;;;2.78;1.70;;;;;;;;;;5075517;28;20415;-75
2022/07/17 10:58:38;;;;;;;3.80;1.70;;;;;;;;;;5077150;28;20479;-74
2022/07/17 11:01:06;;;;;;;3.50;1.50;;;;;;;;;;5075601;28;20414;-74
2022/07/17 11:03:36;;;;;;;3.90;1.60;;;;;;;;;;5074524;28;20778;-74
2022/07/17 11:06:17;;;;;;;3.17;1.40;;;;;;;;;;5076822;28;20414;-75
2022/07/17 11:08:45;;;;;;;6.80;1.60;;;;;;;;;;5074767;28;20425;-75
2022/07/17 11:11:11;;;;;;;5.10;1.60;;;;;;;;;;5075547;28;20938;-75
2022/07/17 11:13:38;;;;;;;3.40;1.70;;;;;;;;;;5077112;28;20420;-75
2022/07/17 11:16:04;;;;;;;5.33;1.80;;;;;;;;;;5075199;28;20907;-75
2022/07/17 11:18:31;;;;;;;3.80;1.42;;;;;;;;;;5075195;28;20420;-74
2022/07/17 11:20:58;;;;;;;4.30;1.45;;;;;;;;;;5074534;28;20414;-75
2022/07/17 11:23:26;;;;;;;4.20;1.50;;;;;;;;;;5078268;28;20415;-75
2022/07/17 11:25:53;;;;;;;5.72;1.70;;;;;;;;;;5080952;28;20417;-74
2022/07/17 11:28:27;;;;;;;3.40;1.58;;;;;;;;;;5079639;28;20787;-74
2022/07/17 11:30:54;;;;;;;3.58;1.48;;;;;;;;;;5079728;28;20413;-74
2022/07/17 11:33:20;;;;;;;3.92;1.50;;;;;;;;;;5080680;28;20856;-75
2022/07/17 11:35:46;;;;;;;2.47;1.60;;;;;;;;;;5081093;28;20481;-74
2022/07/17 11:38:13;;;;;;;4.95;1.98;;;;;;;;;;5077952;28;20408;-75
2022/07/17 11:40:47;;;;;;;4.90;1.50;;;;;;;;;;5081944;28;20410;-75
2022/07/17 11:43:13;;;;;;;2.85;1.50;;;;;;;;;;5078812;28;20484;-75
2022/07/17 11:45:40;;;;;;;3.97;1.92;;;;;;;;;;5081180;28;20962;-75
2022/07/17 11:48:06;;;;;;;3.88;1.60;;;;;;;;;;5079098;28;20422;-75
2022/07/17 11:50:32;;;;;;;4.20;1.90;;;;;;;;;;5079252;28;20410;-75
2022/07/17 11:53:01;;;;;;;3.22;1.40;;;;;;;;;;5078493;28;20423;-75
2022/07/17 11:55:35;;;;;;;3.05;1.60;;;;;;;;;;5077415;28;20421;-75
2022/07/17 11:58:03;;;;;;;3.60;1.60;;;;;;;;;;5077584;28;20412;-74
2022/07/17 12:00:29;;;;;;;2.45;1.48;;;;;;;;;;5079085;28;20415;-75
2022/07/17 12:02:59;;;;;;;4.80;1.70;;;;;;;;;;5079054;28;20411;-75
2022/07/17 12:05:27;;;;;;;2.90;1.47;;;;;;;;;;5080927;28;20775;-75
2022/07/17 12:07:53;;;;;;;4.60;1.70;;;;;;;;;;5077929;28;20411;-74
2022/07/17 12:10:21;;;;;;;4.53;1.65;;;;;;;;;;5080538;28;20403;-74
2022/07/17 12:12:54;;;;;;;3.70;1.45;;;;;;;;;;5079055;28;20969;-75
2022/07/17 12:15:22;;;;;;;4.85;1.50;;;;;;;;;;5079349;28;20411;-75
2022/07/17 12:17:49;;;;;;;5.10;1.48;;;;;;;;;;5079467;28;20417;-75
2022/07/17 12:20:15;;;;;;;2.92;1.50;;;;;;;;;;5079097;28;20428;-75
2022/07/17 12:22:45;;;;;;;4.18;1.42;;;;;;;;;;5078372;28;20887;-75
2022/07/17 12:25:22;;;;;;;3.15;1.30;;;;;;;;;;5077772;28;20857;-74
2022/07/17 12:27:48;;;;;;;3.13;1.70;;;;;;;;;;5076704;28;20808;-75
2022/07/17 12:30:14;;;;;;;4.15;1.70;;;;;;;;;;5077035;28;20418;-75
2022/07/17 12:32:42;;;;;;;5.22;1.60;;;;;;;;;;5078047;28;20918;-74
2022/07/17 12:35:09;;;;;;;3.03;1.30;;;;;;;;;;5076937;28;20415;-75
2022/07/17 12:37:35;;;;;;;2.90;1.63;;;;;;;;;;5089356;23;20405;-75
2022/07/17 12:40:01;;;;;;;2.80;1.50;;;;;;;;;;5059383;28;20423;-75
2022/07/17 12:42:28;;;;;;;2.65;1.50;;;;;;;;;;5059448;28;20417;-76
2022/07/17 12:44:54;;;;;;;3.60;1.75;;;;;;;;;;5059219;28;20450;-76
2022/07/17 12:47:20;;;;;;;4.30;1.58;;;;;;;;;;5058083;28;20423;-75
2022/07/17 12:49:48;;;;;;;2.50;1.48;;;;;;;;;;5058734;28;20420;-76
2022/07/17 12:52:14;;;;;;;3.72;1.50;;;;;;;;;;5058024;28;20919;-76
2022/07/17 12:54:41;;;;;;;3.65;1.60;;;;;;;;;;5057732;28;20421;-75
2022/07/17 12:57:07;;;;;;;3.05;1.50;;;;;;;;;;5059167;28;20414;-76
2022/07/17 12:59:34;;;;;;;3.95;1.60;;;;;;;;;;5059270;28;20417;-76
2022/07/17 13:02:00;;;;;;;3.00;1.40;;;;;;;;;;5057751;28;20413;-76
2022/07/17 13:04:27;;;;;;;3.65;1.70;;;;;;;;;;5057280;28;21242;-76
2022/07/17 13:06:54;;;;;;;3.25;1.70;;;;;;;;;;5059004;28;20471;-75
2022/07/17 13:09:21;;;;;;;3.55;1.48;;;;;;;;;;5057998;28;20421;-75
2022/07/17 13:11:47;;;;;;;4.73;1.70;;;;;;;;;;5058309;28;20413;-75
2022/07/17 13:14:13;;;;;;;2.13;1.70;;;;;;;;;;5057079;28;20466;-76
2022/07/17 13:16:40;;;;;;;3.80;1.88;;;;;;;;;;5058953;28;20774;-75
2022/07/17 13:19:06;;;;;;;3.92;1.60;;;;;;;;;;5055521;28;20429;-75
2022/07/17 13:21:34;;;;;;;3.33;1.70;;;;;;;;;;5057596;28;20925;-75
2022/07/17 13:24:01;;;;;;;3.70;1.60;;;;;;;;;;5055067;28;20417;-76
2022/07/17 13:26:28;;;;;;;2.50;1.70;;;;;;;;;;5058685;28;20417;-75
2022/07/17 13:28:54;;;;;;;4.15;1.80;;;;;;;;;;5057636;28;20415;-76
2022/07/17 13:31:21;;;;;;;3.58;1.90;;;;;;;;;;5058034;28;20430;-75
2022/07/17 13:33:47;;;;;;;3.00;1.80;;;;;;;;;;5057920;28;20415;-75
2022/07/17 13:36:13;;;;;;;2.42;1.50;;;;;;;;;;5058983;28;20419;-76
2022/07/17 13:38:40;;;;;;;4.18;2.00;;;;;;;;;;5057589;28;20431;-75
2022/07/17 13:41:07;;;;;;;2.47;1.67;;;;;;;;;;5059306;28;20411;-75
2022/07/17 13:43:34;;;;;;;3.53;2.20;;;;;;;;;;5058426;28;20503;-75
2022/07/17 13:46:00;;;;;;;2.10;1.90;;;;;;;;;;5058118;28;20857;-75
2022/07/17 13:48:27;;;;;;;2.70;1.50;;;;;;;;;;5057002;28;20420;-75
2022/07/17 13:50:53;;;;;;;5.18;2.00;;;;;;;;;;5057888;28;20425;-75
2022/07/17 13:53:19;;;;;;;4.20;1.83;;;;;;;;;;5056537;28;20438;-75
2022/07/17 13:55:46;;;;;;;5.20;1.83;;;;;;;;;;5057911;28;20405;-75
2022/07/17 13:58:13;;;;;;;3.15;2.20;;;;;;;;;;5057375;28;20413;-75
2022/07/17 14:00:40;;;;;;;4.85;2.20;;;;;;;;;;5058329;28;20425;-75
2022/07/17 14:03:06;;;;;;;3.90;2.30;;;;;;;;;;5055612;28;20421;-75
2022/07/17 14:05:33;;;;;;;3.90;2.23;;;;;;;;;;5058102;28;20433;-75
2022/07/17 14:07:59;;;;;;;4.53;3.93;;;;;;;;;;5056339;28;20420;-76
2022/07/17 14:10:25;;;;;;;3.07;1.97;;;;;;;;;;5057271;28;20418;-75
2022/07/17 14:12:52;;;;;;;3.03;2.20;;;;;;;;;;5056841;28;20416;-76
2022/07/17 14:15:19;;;;;;;3.47;1.93;;;;;;;;;;5057583;28;20438;-76
2022/07/17 14:17:46;;;;;;;4.30;2.10;;;;;;;;;;5056160;28;20424;-76
2022/07/17 14:20:12;;;;;;;4.95;2.08;;;;;;;;;;5057058;28;20855;-75
2022/07/17 14:22:38;;;;;;;4.05;1.90;;;;;;;;;;5056587;28;20463;-75
2022/07/17 14:25:05;;;;;;;3.63;2.20;;;;;;;;;;5056019;28;20429;-75
2022/07/17 14:27:32;;;;;;;3.30;2.38;;;;;;;;;;5055455;28;20413;-76
2022/07/17 14:29:58;;;;;;;3.25;2.20;;;;;;;;;;5056740;28;20417;-75
2022/07/17 14:32:26;;;;;;;3.85;2.20;;;;;;;;;;5056220;28;20421;-75
2022/07/17 14:34:53;;;;;;;3.20;2.37;;;;;;;;;;5057290;28;20441;-75
2022/07/17 14:37:19;;;;;;;3.33;2.10;;;;;;;;;;5056314;28;20482;-75
2022/07/17 14:39:46;;;;;;;2.50;1.90;;;;;;;;;;5057076;28;20422;-75